Alor Star, Malaysia

5:17 AM MYT on October 24, 2014 (GMT +0800)
Sultan Abdul Halim | Change Station
CLOSE
Current Station
Airport
Location: Sultan Abdul Halim,
Elevation: 16 ft
Nearby Weather Stations

Elev 16 ft 6.19 °N, 100.40 °E | Updated 17 minutes ago

Mostly Cloudy
Mostly Cloudy
75 °F
Feels Like 75 °F
N
2
Wind Variable Wind from East

Today
High -- | Low -- °F
--% Chance of Precip.
Yesterday
High -- | Low -- °F
Precip. -- in
7:04 AM 7:00 PM
Waning Crescent, 0% visible
Pressure 29.80 in
Visibility 5.0 miles
Clouds Few 800 ft
Mostly Cloudy 28000 ft
Dew Point 73 °F
Humidity 94%
Rainfall 0.00 in
Snow Depth Not available.
UV 0 out of 12
Pollen Not available.
Air Quality Not available.
Flu Activity Not available.
METAR WMKA 232100Z 10002KT 8000 FEW008 BKN280 24/23 Q1009

More Conditions Fewer Conditions

Pressure 29.80 in
Visibility 5.0 miles
Clouds Few 800 ft
Mostly Cloudy 28000 ft
Dew Point 73 °F
Humidity 94%
Rainfall 0.00 in
Snow Depth Not available.
UV 0 out of 12
Pollen Not available.
Air Quality Not available.
Flu Activity Not available.
METAR WMKA 232100Z 10002KT 8000 FEW008 BKN280 24/23 Q1009

More Conditions Fewer Conditions

10-Day Weather Forecast

Almanac

Astronomy

Oct. 24, 2014 Rise Set
Actual Time 7:04 AM MYT 7:00 PM MYT
Civil Twilight 6:43 AM MYT 7:22 PM MYT
Nautical Twilight 6:18 AM MYT 7:46 PM MYT
Astronomical Twilight 5:54 AM MYT 8:11 PM MYT
Moon 7:11 AM MYT (10/24) 7:24 PM MYT (10/24)
Length of Visible Light 12h 38m
Length of Day
11h 56m
Tomorrow will be 0m 18s shorter.
Waning Crescent, 0% of the Moon is Illuminated
Oct 23
Waning Crescent
Oct 23
New
Oct 30
First Quarter
Nov 6
Full
Nov 14
Last Quarter

Yesterday's Extremes

Country Highs Country Lows

Community

WunderPhotos

Upload Photos

1,764,372 photos uploaded!

WunderBlogs® & News

Nearby

Snow Depth

Not available.

Earthquake Activity

City Distance Mag. Time & Date
No recent earthquake activity has been reported nearby.
Minimum magnitude displayed is 2.5.

Coastal Water Temperatures

Place Temperature
No Stations Reporting

Nearby Weather Stations